Horsholm, Denmark
Current Conditions -  °F | °C
As of 12:37 PM on Saturday 25 Oct 2014 (Local Time) from EKCH Reporting Station
Haze Haze  
Wind Chill: 52°   Ceiling: 900
Heat Index: 52°   Visibility: 3mi
Dew Point: 50°   Wind: 16mph
Humidity: 94%   Direction: 200°SSW
Pressure: 30"   Gusts: NA
Location:  55.88°N, 12.5°E
Report Text: EKCH 251037Z 20014KT 5000 BR BKN009 11/10 Q1016 TEMPO4000
Loading
Personal Weather Stations






























Interactive Weather Map New forecast layout! Learn more

10-Day Weather Forecast

Advertisements
Track Severe Weather on mobile